Pioneer, Tennessee
Current Conditions -  °F | °C
As of 12:53 PM on Friday 21 Nov 2014 (Local Time) from KOQT Reporting Station
Clear Clear  
Wind Chill: 44°   Ceiling: Unl
Heat Index: 47°   Visibility: 10mi
Dew Point: 16°   Wind: 6mph
Humidity: 29%   Direction: NA
Pressure: 30.46"   Gusts: NA
Location:  36.42°N, 84.31°W
Report Text: KOQT 211753Z AUTO VRB05KT 10SM CLR 08/M09 A3046 RMK AO2 SLP323 T00831089 10089 21022 58005
Loading
Personal Weather Stations






























Interactive Weather Map New forecast layout! Learn more

10-Day Weather Forecast

Advertisements
Track Severe Weather on mobile